Time;durP1;ratioP1;P1;durP2;ratioP2;P2;SDS_P1;SDS_P2;PMS_P1;PMS_P2;Temp;Humidity;BMP_temperature;BMP_pressure;BME280_temperature;BME280_humidity;BME280_pressure;Samples;Min_cycle;Max_cycle;Signal;HPM_P1;HPM_P2
2022/01/18 00:01:15;;;;;;;22.35;10.73;;;1.20;99.90;;;;;;5067470;28;20056;-66
2022/01/18 00:03:42;;;;;;;24.75;9.68;;;1.20;99.90;;;;;;5070514;28;20045;-66
2022/01/18 00:06:09;;;;;;;23.13;12.45;;;1.10;99.90;;;;;;5065106;28;20044;-66
2022/01/18 00:08:36;;;;;;;25.35;9.45;;;1.40;99.90;;;;;;5047128;28;20101;-67
2022/01/18 00:11:04;;;;;;;31.10;10.43;;;1.10;99.90;;;;;;5056674;28;20415;-66
2022/01/18 00:18:33;;;;;;;30.30;10.68;;;1.00;99.90;;;;;;5065006;28;20468;-65
2022/01/18 00:23:52;;;;;;;27.27;12.02;;;1.00;99.90;;;;;;5066628;28;20658;-65
2022/01/18 00:26:19;;;;;;;23.60;11.23;;;1.00;99.90;;;;;;5054908;28;21053;-64
2022/01/18 00:28:52;;;;;;;26.42;11.95;;;0.90;99.90;;;;;;5056349;28;20307;-64
2022/01/18 00:39:16;;;;;;;29.50;12.95;;;0.90;99.90;;;;;;5067111;28;20049;-65
2022/01/18 00:41:43;;;;;;;25.10;11.13;;;0.90;99.90;;;;;;5065739;28;20049;-65
2022/01/18 00:44:10;;;;;;;23.27;11.40;;;0.90;99.90;;;;;;5065786;28;20084;-66
2022/01/18 00:46:38;;;;;;;24.08;10.05;;;0.90;99.90;;;;;;5066515;28;20063;-64
2022/01/18 00:49:05;;;;;;;27.27;10.57;;;0.90;99.90;;;;;;5067831;28;20470;-66
2022/01/18 00:51:36;;;;;;;27.10;11.50;;;1.00;99.90;;;;;;5069895;28;20080;-66
2022/01/18 00:54:04;;;;;;;24.83;10.75;;;0.80;99.90;;;;;;5068002;28;20048;-65
2022/01/18 00:56:32;;;;;;;25.38;12.15;;;0.80;99.90;;;;;;5065470;28;20053;-66
2022/01/18 00:58:59;;;;;;;27.85;13.70;;;0.80;99.90;;;;;;5066173;28;20508;-66
2022/01/18 01:01:29;;;;;;;26.55;12.43;;;0.80;99.90;;;;;;5070242;28;20051;-66
2022/01/18 01:04:00;;;;;;;21.15;11.73;;;0.80;99.90;;;;;;5049888;28;20072;-66
2022/01/18 01:06:27;;;;;;;24.83;11.75;;;0.80;99.90;;;;;;5066958;28;20095;-65
2022/01/18 01:08:54;;;;;;;24.85;10.48;;;0.80;99.90;;;;;;5066318;28;20076;-66
2022/01/18 01:11:20;;;;;;;20.98;9.90;;;0.80;99.90;;;;;;5067415;28;20699;-65
2022/01/18 01:13:50;;;;;;;26.15;11.60;;;0.70;99.90;;;;;;5050137;28;20079;-66
2022/01/18 01:44:07;;;;;;;22.83;10.98;;;0.50;99.90;;;;;;5074633;28;20048;-67
2022/01/18 01:46:12;;;;;;;26.42;11.63;;;0.60;99.90;;;;;;5069415;28;20561;-66
2022/01/18 01:48:41;;;;;;;30.20;11.00;;;0.50;99.90;;;;;;5070631;28;20044;-66
2022/01/18 01:51:08;;;;;;;21.05;9.65;;;0.50;99.90;;;;;;5067414;28;20086;-66
2022/01/18 01:53:35;;;;;;;20.15;10.20;;;0.50;99.90;;;;;;5071250;28;20076;-66
2022/01/18 01:56:02;;;;;;;21.20;10.50;;;0.40;99.90;;;;;;5070723;28;20624;-67
2022/01/18 01:58:29;;;;;;;23.63;10.02;;;0.40;99.90;;;;;;5069752;28;20060;-66
2022/01/18 02:00:57;;;;;;;21.65;10.23;;;0.40;99.90;;;;;;5070284;28;20504;-66
2022/01/18 02:03:25;;;;;;;16.55;9.32;;;0.50;99.90;;;;;;5071192;28;20470;-67
2022/01/18 02:05:52;;;;;;;24.33;10.45;;;0.60;99.90;;;;;;5062761;28;20048;-66
2022/01/18 02:08:19;;;;;;;22.70;10.25;;;0.40;99.90;;;;;;5065894;28;20049;-67
2022/01/18 02:10:45;;;;;;;23.00;9.85;;;0.40;99.90;;;;;;4714812;28;10000662;-66
2022/01/18 02:13:13;;;;;;;20.85;9.52;;;0.40;99.90;;;;;;5070908;28;20049;-67
2022/01/18 02:15:47;;;;;;;22.27;10.57;;;0.30;99.90;;;;;;5069362;28;20094;-67
2022/01/18 02:23:45;;;;;;;22.17;9.52;;;0.30;99.90;;;;;;5061469;28;20044;-65
2022/01/18 02:26:12;;;;;;;23.85;8.82;;;0.30;99.90;;;;;;5069118;28;20080;-65
2022/01/18 02:28:39;;;;;;;21.63;9.05;;;0.30;99.90;;;;;;5069580;28;20083;-67
2022/01/18 02:31:06;;;;;;;29.55;10.13;;;0.30;99.90;;;;;;5070079;28;20118;-64
2022/01/18 02:33:33;;;;;;;29.42;11.30;;;0.30;99.90;;;;;;5069740;28;20404;-68
2022/01/18 02:35:59;;;;;;;20.10;9.00;;;0.30;99.90;;;;;;5070073;28;20503;-67
2022/01/18 02:38:26;;;;;;;25.25;10.02;;;0.30;99.90;;;;;;5068540;28;20487;-66
2022/01/18 02:40:53;;;;;;;25.83;9.60;;;0.30;99.90;;;;;;5069579;28;20040;-66
2022/01/18 02:46:05;;;;;;;27.77;9.40;;;0.30;99.90;;;;;;5069835;28;20491;-66
2022/01/18 02:48:32;;;;;;;22.67;8.65;;;0.30;99.90;;;;;;5069632;28;20118;-67
2022/01/18 02:50:59;;;;;;;20.35;8.60;;;0.20;99.90;;;;;;5069898;28;20044;-66
2022/01/18 02:53:25;;;;;;;21.92;8.90;;;0.20;99.90;;;;;;5069774;28;20056;-66
2022/01/18 02:55:53;;;;;;;20.95;9.13;;;0.20;99.90;;;;;;5069491;28;20052;-66
2022/01/18 02:58:32;;;;;;;23.83;9.65;;;0.60;99.90;;;;;;5069753;28;20072;-66
2022/01/18 03:03:34;;;;;;;24.20;9.30;;;0.30;99.90;;;;;;5068930;28;20578;-66
2022/01/18 03:06:05;;;;;;;22.05;8.40;;;0.10;99.90;;;;;;5069521;28;20084;-66
2022/01/18 03:08:33;;;;;;;19.88;9.23;;;0.10;99.90;;;;;;5061577;28;20067;-66
2022/01/18 03:11:02;;;;;;;18.85;9.52;;;0.00;99.90;;;;;;5068810;28;20094;-66
2022/01/18 03:13:29;;;;;;;18.38;7.63;;;0.00;99.90;;;;;;5068432;28;20046;-67
2022/01/18 03:15:55;;;;;;;24.92;8.50;;;0.00;99.90;;;;;;5071762;28;20514;-66
2022/01/18 03:18:22;;;;;;;21.92;9.15;;;0.00;99.90;;;;;;5075362;28;20484;-66
2022/01/18 03:20:49;;;;;;;21.85;10.15;;;-0.10;99.90;;;;;;5071037;28;20087;-69
2022/01/18 03:23:19;;;;;;;20.70;9.57;;;-0.10;99.90;;;;;;5069154;28;20488;-67
2022/01/18 03:25:58;;;;;;;22.60;9.85;;;0.00;99.90;;;;;;5068435;28;20454;-66
2022/01/18 03:28:25;;;;;;;19.20;8.68;;;0.00;99.90;;;;;;5068956;28;20045;-66
2022/01/18 03:30:58;;;;;;;20.50;8.38;;;0.10;99.90;;;;;;5068685;28;20491;-66
2022/01/18 03:33:28;;;;;;;19.35;8.05;;;0.00;99.90;;;;;;5068702;28;20044;-66
2022/01/18 03:35:55;;;;;;;21.95;8.25;;;0.00;99.90;;;;;;5068834;28;20047;-67
2022/01/18 03:38:29;;;;;;;22.55;7.75;;;0.00;99.90;;;;;;5069171;28;20458;-66
2022/01/18 03:40:58;;;;;;;16.48;8.07;;;0.00;99.90;;;;;;5067171;28;20060;-65
2022/01/18 03:43:24;;;;;;;24.80;8.02;;;0.00;99.90;;;;;;5069210;28;20098;-65
2022/01/18 03:45:54;;;;;;;20.17;8.50;;;0.00;99.90;;;;;;5068862;28;21207;-66
2022/01/18 03:48:31;;;;;;;19.77;9.00;;;0.00;99.90;;;;;;5068577;28;20480;-66
2022/01/18 03:50:58;;;;;;;18.83;7.38;;;0.00;99.90;;;;;;5067497;28;20087;-65
2022/01/18 03:53:25;;;;;;;26.15;9.63;;;0.00;99.90;;;;;;5068925;28;20044;-65
2022/01/18 03:55:52;;;;;;;16.75;8.10;;;0.00;99.90;;;;;;5067996;28;20044;-65
2022/01/18 03:58:19;;;;;;;25.77;8.43;;;-0.10;99.90;;;;;;5069355;28;20052;-65
2022/01/18 04:00:46;;;;;;;23.38;9.32;;;0.00;99.90;;;;;;5067880;28;20083;-66
2022/01/18 04:03:13;;;;;;;17.02;8.20;;;-0.10;99.90;;;;;;5047514;28;20132;-65
2022/01/18 04:05:40;;;;;;;18.50;8.27;;;-0.10;99.90;;;;;;5060868;28;20106;-65
2022/01/18 04:08:07;;;;;;;16.52;8.52;;;-0.10;99.90;;;;;;5068795;28;20040;-66
2022/01/18 04:10:34;;;;;;;20.17;8.77;;;-0.10;99.90;;;;;;5067980;28;20125;-64
2022/01/18 04:13:01;;;;;;;18.63;7.20;;;-0.10;99.90;;;;;;5068879;28;20084;-65
2022/01/18 04:15:29;;;;;;;21.42;8.05;;;-0.10;99.90;;;;;;5068438;28;20411;-65
2022/01/18 04:28:43;;;;;;;19.48;7.80;;;-0.20;99.90;;;;;;5068532;28;20049;-65
2022/01/18 04:31:10;;;;;;;14.60;7.32;;;-0.20;99.90;;;;;;5070010;28;20507;-65
2022/01/18 04:33:37;;;;;;;20.10;8.00;;;-0.30;99.90;;;;;;5070895;28;20128;-66
2022/01/18 04:36:06;;;;;;;17.67;7.43;;;-0.30;99.90;;;;;;5070442;28;20052;-65
2022/01/18 04:38:33;;;;;;;15.02;7.10;;;-0.30;99.90;;;;;;5069629;28;20067;-66
2022/01/18 04:41:04;;;;;;;16.77;7.57;;;-0.30;99.90;;;;;;5070709;28;20068;-65
2022/01/18 04:49:02;;;;;;;17.75;6.93;;;-0.20;99.90;;;;;;5070540;28;20058;-65
2022/01/18 04:51:29;;;;;;;18.73;6.72;;;-0.20;99.90;;;;;;5070706;28;20094;-65
2022/01/18 04:53:58;;;;;;;23.90;8.30;;;-0.20;99.90;;;;;;5072040;28;20082;-66
2022/01/18 04:57:52;;;;;;;21.15;6.13;;;-0.30;99.90;;;;;;5074450;28;20490;-66
2022/01/18 04:59:14;;;;;;;22.08;6.45;;;-0.40;99.90;;;;;;5055528;28;20045;-66
2022/01/18 05:01:41;;;;;;;23.73;9.60;;;-0.30;99.90;;;;;;5070005;28;20048;-66
2022/01/18 05:04:09;;;;;;;15.85;6.95;;;-0.30;99.90;;;;;;5074575;28;20103;-65
2022/01/18 05:06:36;;;;;;;17.30;6.90;;;-0.30;99.90;;;;;;5073965;28;20131;-66
2022/01/18 05:09:08;;;;;;;14.93;6.28;;;-0.30;99.90;;;;;;5072167;28;20063;-67
2022/01/18 05:11:43;;;;;;;17.80;6.20;;;-0.30;99.90;;;;;;5072112;28;20049;-68
2022/01/18 05:14:45;;;;;;;10.05;5.32;;;-0.30;99.90;;;;;;5072103;28;20052;-66
2022/01/18 05:17:22;;;;;;;11.20;5.88;;;-0.30;99.90;;;;;;5057127;28;20049;-67
2022/01/18 05:25:07;;;;;;;15.65;6.78;;;-0.30;99.90;;;;;;5070315;28;20052;-67
2022/01/18 05:27:34;;;;;;;19.17;7.22;;;-0.30;99.90;;;;;;5071516;28;20482;-66
2022/01/18 05:30:01;;;;;;;18.23;6.88;;;-0.30;99.90;;;;;;5071888;28;20076;-68
2022/01/18 05:32:28;;;;;;;13.80;7.15;;;-0.30;99.90;;;;;;5071294;28;20080;-69
2022/01/18 05:34:55;;;;;;;14.95;6.43;;;-0.30;99.90;;;;;;5071909;28;20048;-67
2022/01/18 05:37:21;;;;;;;10.75;6.78;;;-0.30;99.90;;;;;;5071224;28;20048;-65
2022/01/18 05:39:48;;;;;;;15.25;5.82;;;0.20;99.90;;;;;;5071845;28;20121;-68
2022/01/18 05:42:15;;;;;;;18.42;6.93;;;-0.30;99.90;;;;;;5070261;28;20098;-67
2022/01/18 05:44:42;;;;;;;16.73;6.93;;;-0.30;99.90;;;;;;5071569;28;20102;-67
2022/01/18 05:47:09;;;;;;;26.35;8.00;;;-0.30;99.90;;;;;;5071205;28;20056;-66
2022/01/18 05:49:35;;;;;;;15.88;7.88;;;-0.40;99.90;;;;;;5070969;28;20045;-67
2022/01/18 05:52:02;;;;;;;17.38;5.93;;;-0.40;99.90;;;;;;5071297;28;20079;-65
2022/01/18 05:54:29;;;;;;;11.02;5.18;;;-0.40;99.90;;;;;;5070558;28;20087;-64
2022/01/18 05:56:56;;;;;;;18.50;6.13;;;-0.40;99.90;;;;;;5069514;28;20072;-65
2022/01/18 05:59:24;;;;;;;13.68;5.45;;;-0.40;99.90;;;;;;5069576;28;20048;-65
2022/01/18 06:02:01;;;;;;;15.10;5.70;;;-0.30;99.90;;;;;;5071000;28;20052;-66
2022/01/18 06:07:21;;;;;;;19.55;7.47;;;-0.30;99.90;;;;;;5053695;28;20106;-67
2022/01/18 06:09:48;;;;;;;15.60;5.88;;;-0.30;99.90;;;;;;5071205;28;20044;-64
2022/01/18 06:12:15;;;;;;;17.73;5.55;;;-0.30;99.90;;;;;;5075494;28;20048;-66
2022/01/18 06:14:43;;;;;;;17.23;6.07;;;-0.30;99.90;;;;;;5078809;28;20074;-65
2022/01/18 06:17:10;;;;;;;12.02;5.95;;;-0.40;99.90;;;;;;5070534;28;20052;-65
2022/01/18 06:19:38;;;;;;;13.02;5.18;;;-0.40;99.90;;;;;;5069799;28;20044;-66
2022/01/18 06:22:04;;;;;;;10.45;4.82;;;-0.40;99.90;;;;;;5070387;28;20076;-65
2022/01/18 06:24:31;;;;;;;9.98;5.20;;;-0.40;99.90;;;;;;5069691;28;20045;-65
2022/01/18 06:27:06;;;;;;;;;;;-0.50;99.90;;;;;;5071150;28;20052;-65
2022/01/18 06:29:33;;;;;;;11.30;5.50;;;-0.50;99.90;;;;;;5069910;28;19960;-65
2022/01/18 06:31:59;;;;;;;16.58;7.38;;;-0.50;99.90;;;;;;5070724;28;20106;-65
2022/01/18 06:34:27;;;;;;;13.07;6.50;;;-0.50;99.90;;;;;;5069446;28;20452;-66
2022/01/18 06:36:54;;;;;;;14.85;6.43;;;-0.50;99.90;;;;;;5062725;28;20484;-66
2022/01/18 06:39:21;;;;;;;14.82;6.38;;;-0.50;99.90;;;;;;5062785;28;20044;-65
2022/01/18 06:41:48;;;;;;;13.98;5.68;;;-0.50;99.90;;;;;;5070620;28;20076;-66
2022/01/18 06:44:15;;;;;;;15.68;6.07;;;-0.40;99.90;;;;;;5068280;28;20048;-66
2022/01/18 06:46:42;;;;;;;16.90;6.28;;;-0.40;99.90;;;;;;5068268;28;20052;-65
2022/01/18 06:49:09;;;;;;;10.93;5.93;;;-0.30;99.90;;;;;;5069349;28;20459;-65
2022/01/18 06:51:35;;;;;;;17.77;6.20;;;-0.40;99.90;;;;;;5069554;28;20458;-67
2022/01/18 06:54:02;;;;;;;21.65;7.13;;;-0.40;99.90;;;;;;5068182;28;20090;-64
2022/01/18 06:56:29;;;;;;;31.33;7.93;;;-0.40;99.90;;;;;;5069075;28;20037;-67
2022/01/18 06:58:59;;;;;;;18.45;8.00;;;-0.40;99.90;;;;;;5068916;28;20052;-67
2022/01/18 07:01:26;;;;;;;17.00;6.63;;;-0.40;99.90;;;;;;5047815;28;20048;-65
2022/01/18 07:03:53;;;;;;;15.13;6.93;;;-0.40;99.90;;;;;;5067428;28;20048;-66
2022/01/18 07:06:20;;;;;;;16.63;6.80;;;-0.40;99.90;;;;;;5067652;28;20110;-66
2022/01/18 07:08:47;;;;;;;13.23;6.63;;;-0.50;99.90;;;;;;5071451;28;20040;-66
2022/01/18 07:11:16;;;;;;;12.95;6.60;;;-0.40;99.90;;;;;;5069018;28;20040;-66
2022/01/18 07:13:43;;;;;;;14.13;6.78;;;-0.50;99.90;;;;;;5076693;28;20043;-66
2022/01/18 07:16:10;;;;;;;12.38;6.22;;;-0.50;99.90;;;;;;5081800;28;20052;-66
2022/01/18 07:18:37;;;;;;;14.98;7.05;;;-0.50;99.90;;;;;;5063217;28;20053;-66
2022/01/18 07:21:03;;;;;;;10.02;6.05;;;-0.50;99.90;;;;;;5054808;28;20089;-66
2022/01/18 07:23:30;;;;;;;24.35;7.15;;;-0.40;99.90;;;;;;5069044;28;20098;-67
2022/01/18 07:26:02;;;;;;;17.00;6.72;;;-0.40;99.90;;;;;;5070034;28;20080;-66
2022/01/18 07:28:29;;;;;;;14.52;6.47;;;-0.40;99.90;;;;;;5081374;28;20049;-65
2022/01/18 07:30:56;;;;;;;16.85;6.60;;;-0.50;99.90;;;;;;5071679;28;20040;-66
2022/01/18 07:33:23;;;;;;;19.02;6.90;;;-0.50;99.90;;;;;;5074786;28;20052;-66
2022/01/18 07:35:50;;;;;;;16.30;6.70;;;-0.50;99.90;;;;;;5069566;28;20400;-66
2022/01/18 07:38:18;;;;;;;11.30;6.25;;;-0.40;99.90;;;;;;5067501;28;20089;-66
2022/01/18 07:40:46;;;;;;;11.38;6.07;;;-0.40;99.90;;;;;;5067113;28;20094;-65
2022/01/18 07:43:16;;;;;;;21.08;7.55;;;-0.40;99.90;;;;;;5059618;28;20045;-66
2022/01/18 07:45:44;;;;;;;11.15;5.57;;;-0.40;99.90;;;;;;5055622;28;20041;-65
2022/01/18 07:48:11;;;;;;;22.90;6.43;;;-0.40;99.90;;;;;;5058019;28;20514;-66
2022/01/18 07:50:39;;;;;;;17.40;6.78;;;-0.40;99.90;;;;;;5052724;28;20100;-64
2022/01/18 07:53:06;;;;;;;13.70;6.03;;;0.20;99.90;;;;;;5056886;28;20044;-65
2022/01/18 07:55:33;;;;;;;15.82;7.43;;;-0.40;99.90;;;;;;5057076;28;20041;-64
2022/01/18 07:58:02;;;;;;;14.80;7.25;;;-0.40;99.90;;;;;;5059772;28;20264;-65
2022/01/18 08:00:29;;;;;;;17.35;6.72;;;-0.40;99.90;;;;;;5058104;28;20388;-64
2022/01/18 08:02:56;;;;;;;14.85;6.40;;;-0.40;99.90;;;;;;5059627;28;20051;-65
2022/01/18 08:05:23;;;;;;;13.10;7.18;;;-0.10;99.90;;;;;;5057859;28;20553;-64
2022/01/18 08:07:50;;;;;;;15.32;6.57;;;-0.40;99.90;;;;;;5061415;28;20101;-65
2022/01/18 08:10:18;;;;;;;16.63;7.55;;;-0.40;99.90;;;;;;5064310;28;20385;-64
2022/01/18 08:12:46;;;;;;;19.25;6.70;;;-0.40;99.90;;;;;;5060397;28;20059;-63
2022/01/18 08:15:16;;;;;;;14.48;8.13;;;-0.40;99.90;;;;;;5060928;28;20098;-64
2022/01/18 08:17:50;;;;;;;17.25;6.13;;;-0.40;99.90;;;;;;5055864;28;20044;-64
2022/01/18 08:20:18;;;;;;;11.63;8.25;;;-0.40;99.90;;;;;;5059496;28;20113;-65
2022/01/18 08:22:45;;;;;;;15.20;8.18;;;-0.40;99.90;;;;;;5056027;28;20057;-65
2022/01/18 08:25:13;;;;;;;13.65;6.47;;;-0.20;99.90;;;;;;5066086;28;20457;-65
2022/01/18 08:27:41;;;;;;;18.25;7.13;;;-0.40;99.90;;;;;;5069134;28;20125;-65
2022/01/18 08:30:09;;;;;;;10.18;6.38;;;-0.30;99.90;;;;;;5072415;28;20040;-65
2022/01/18 08:32:37;;;;;;;22.38;6.25;;;-0.40;99.90;;;;;;5071479;28;20144;-66
2022/01/18 08:35:04;;;;;;;18.20;6.57;;;-0.30;99.90;;;;;;5065030;28;20146;-66
2022/01/18 08:37:31;;;;;;;20.95;7.65;;;-0.30;99.90;;;;;;5051989;28;20045;-65
2022/01/18 08:39:58;;;;;;;11.48;6.43;;;-0.10;99.90;;;;;;5067627;28;20045;-65
2022/01/18 08:42:24;;;;;;;12.27;6.72;;;-0.20;99.90;;;;;;5069278;28;20443;-64
2022/01/18 08:44:51;;;;;;;14.77;7.32;;;-0.20;99.90;;;;;;5069858;28;20125;-64
2022/01/18 08:47:18;;;;;;;12.88;7.35;;;-0.10;99.90;;;;;;5071953;28;20149;-64
2022/01/18 08:49:45;;;;;;;14.07;6.50;;;-0.10;99.90;;;;;;5072017;28;20076;-64
2022/01/18 08:52:12;;;;;;;13.35;6.88;;;0.00;99.90;;;;;;5072752;28;20041;-65
2022/01/18 08:54:40;;;;;;;16.20;6.53;;;0.00;99.90;;;;;;5071701;28;20094;-65
2022/01/18 08:57:07;;;;;;;16.05;6.63;;;0.00;99.90;;;;;;5071679;28;20087;-65
2022/01/18 08:59:35;;;;;;;15.27;6.70;;;0.10;99.90;;;;;;5071222;28;20306;-67
2022/01/18 09:02:04;;;;;;;17.50;7.47;;;0.20;99.90;;;;;;5070388;28;20059;-66
2022/01/18 09:04:30;;;;;;;16.75;7.35;;;0.40;99.90;;;;;;5055760;28;20457;-66
2022/01/18 09:07:02;;;;;;;13.60;7.03;;;0.30;99.90;;;;;;5072214;28;20490;-65
2022/01/18 09:09:28;;;;;;;13.88;7.97;;;0.30;99.90;;;;;;5072183;28;20449;-66
2022/01/18 09:11:55;;;;;;;14.80;7.70;;;0.40;99.90;;;;;;5070783;28;20052;-65
2022/01/18 09:14:22;;;;;;;15.93;6.50;;;0.40;99.90;;;;;;5070426;28;20495;-65
2022/01/18 09:16:49;;;;;;;16.63;7.18;;;0.50;99.90;;;;;;5069008;28;20102;-65
2022/01/18 09:19:16;;;;;;;14.50;7.88;;;0.60;99.90;;;;;;5068904;28;20113;-67
2022/01/18 09:21:46;;;;;;;13.32;7.57;;;0.70;99.90;;;;;;5069191;28;20126;-66
2022/01/18 09:24:19;;;;;;;17.10;7.07;;;0.70;99.90;;;;;;5068129;28;20044;-65
2022/01/18 09:26:46;;;;;;;15.38;7.50;;;0.90;99.90;;;;;;5069990;28;20101;-65
2022/01/18 09:29:14;;;;;;;19.40;9.23;;;1.00;99.90;;;;;;5070465;28;20036;-64
2022/01/18 09:31:41;;;;;;;14.52;7.25;;;1.00;99.90;;;;;;5071899;28;20113;-66
2022/01/18 09:34:08;;;;;;;16.90;6.90;;;1.20;99.90;;;;;;5071020;28;20060;-65
2022/01/18 09:36:35;;;;;;;13.70;6.95;;;1.20;99.90;;;;;;5071056;28;20083;-65
2022/01/18 09:39:03;;;;;;;17.20;6.25;;;1.30;99.90;;;;;;5071955;28;20079;-65
2022/01/18 09:41:31;;;;;;;15.18;6.15;;;1.40;99.90;;;;;;5072218;28;20044;-65
2022/01/18 09:43:58;;;;;;;25.95;8.52;;;1.40;99.90;;;;;;5072157;28;20118;-66
2022/01/18 09:46:25;;;;;;;17.60;6.93;;;1.60;99.90;;;;;;5072503;28;20152;-65
2022/01/18 09:48:55;;;;;;;17.48;6.05;;;1.70;99.90;;;;;;5072818;28;20415;-66
2022/01/18 09:51:23;;;;;;;16.25;6.57;;;1.90;99.90;;;;;;5071671;28;20040;-66
2022/01/18 09:53:50;;;;;;;16.55;6.75;;;2.00;99.90;;;;;;5073341;28;20083;-66
2022/01/18 09:56:17;;;;;;;23.52;8.00;;;2.20;99.90;;;;;;5072695;28;20094;-66
2022/01/18 09:58:44;;;;;;;28.17;8.20;;;2.20;99.90;;;;;;5072817;28;20541;-66
2022/01/18 10:01:11;;;;;;;29.67;10.52;;;2.30;99.90;;;;;;5076648;28;20086;-66
2022/01/18 10:03:39;;;;;;;24.58;8.70;;;2.40;99.90;;;;;;5075933;28;20059;-66
2022/01/18 10:06:06;;;;;;;21.10;7.97;;;2.50;99.90;;;;;;5071699;28;20053;-66
2022/01/18 10:08:40;;;;;;;21.70;8.68;;;2.60;99.90;;;;;;5072601;28;20403;-66
2022/01/18 10:11:14;;;;;;;24.75;7.22;;;2.70;99.90;;;;;;5071376;28;20052;-66
2022/01/18 10:13:41;;;;;;;12.85;6.63;;;2.80;99.90;;;;;;5067605;28;20040;-66
2022/01/18 10:16:08;;;;;;;14.07;6.00;;;3.00;99.90;;;;;;5039525;28;20063;-64
2022/01/18 10:18:50;;;;;;;11.75;6.35;;;3.10;99.90;;;;;;5072463;28;20110;-64
2022/01/18 10:21:28;;;;;;;20.17;6.28;;;3.40;99.90;;;;;;5071059;28;20055;-65
2022/01/18 10:24:22;;;;;;;18.15;5.85;;;3.20;99.90;;;;;;5071758;28;20044;-65
2022/01/18 10:26:50;;;;;;;12.77;6.43;;;3.30;99.90;;;;;;5071829;28;20492;-65
2022/01/18 10:29:19;;;;;;;10.43;5.32;;;3.60;99.90;;;;;;5072002;28;20068;-65
2022/01/18 10:37:04;;;;;;;10.95;5.30;;;3.80;99.90;;;;;;5070903;28;20076;-65
2022/01/18 10:39:38;;;;;;;25.83;7.63;;;3.90;99.90;;;;;;5071309;28;20079;-69
2022/01/18 10:42:14;;;;;;;23.35;6.20;;;4.10;99.90;;;;;;5071756;28;20079;-65
2022/01/18 10:44:41;;;;;;;30.10;9.50;;;4.20;99.90;;;;;;5070757;28;20101;-66
2022/01/18 10:47:09;;;;;;;23.63;7.82;;;4.30;99.90;;;;;;5070563;28;20427;-65
2022/01/18 10:49:40;;;;;;;20.40;8.35;;;4.40;99.90;;;;;;5069915;28;20082;-65
2022/01/18 10:52:21;;;;;;;21.65;8.55;;;4.60;99.90;;;;;;5071709;28;20438;-69
2022/01/18 10:54:57;;;;;;;21.35;8.23;;;4.60;99.90;;;;;;5071223;28;20051;-65
2022/01/18 10:57:26;;;;;;;20.77;8.52;;;4.70;99.90;;;;;;5051778;28;20048;-65
2022/01/18 10:59:58;;;;;;;23.48;9.57;;;4.70;99.90;;;;;;5069224;28;20502;-66
2022/01/18 11:02:25;;;;;;;19.30;8.70;;;4.80;99.90;;;;;;5070066;28;20407;-65
2022/01/18 11:04:56;;;;;;;14.02;9.23;;;4.90;99.90;;;;;;5070832;28;20123;-66
2022/01/18 11:07:27;;;;;;;21.30;8.30;;;4.90;99.90;;;;;;5050322;28;20057;-66
2022/01/18 11:09:54;;;;;;;20.10;8.32;;;5.00;99.90;;;;;;5066716;28;20480;-67
2022/01/18 11:12:25;;;;;;;24.90;9.55;;;5.00;99.90;;;;;;5069912;28;20432;-66
2022/01/18 11:15:03;;;;;;;19.73;9.70;;;5.10;99.90;;;;;;5069991;28;20072;-66
2022/01/18 11:17:38;;;;;;;21.73;10.20;;;5.10;99.90;;;;;;5069951;28;20048;-66
2022/01/18 11:20:06;;;;;;;17.80;9.88;;;5.10;99.90;;;;;;5070994;28;20110;-66
2022/01/18 11:22:33;;;;;;;21.55;10.38;;;5.20;99.90;;;;;;5071289;28;20083;-66
2022/01/18 11:25:01;;;;;;;24.13;9.48;;;5.20;99.90;;;;;;5068646;28;20106;-66
2022/01/18 11:27:29;;;;;;;21.98;9.68;;;5.10;99.90;;;;;;5050343;28;20472;-66
2022/01/18 11:29:56;;;;;;;19.63;10.15;;;5.20;99.90;;;;;;5060575;28;20072;-66
2022/01/18 11:32:27;;;;;;;23.38;11.18;;;5.20;99.90;;;;;;5068396;28;20052;-65
2022/01/18 11:35:06;;;;;;;21.00;10.10;;;5.20;99.90;;;;;;5040250;28;20076;-66
2022/01/18 11:37:38;;;;;;;22.33;9.93;;;5.20;99.90;;;;;;5070885;28;20076;-66
2022/01/18 11:40:10;;;;;;;19.88;9.30;;;5.20;99.90;;;;;;5069625;28;21316;-66
2022/01/18 11:42:52;;;;;;;23.85;10.73;;;5.20;99.90;;;;;;5070560;28;20052;-66
2022/01/18 11:45:25;;;;;;;20.35;8.95;;;5.30;99.90;;;;;;5070380;28;20037;-66
2022/01/18 11:48:01;;;;;;;23.58;9.40;;;5.50;99.90;;;;;;5070884;28;20064;-66
2022/01/18 11:50:37;;;;;;;18.98;8.50;;;5.30;99.90;;;;;;5070374;28;20045;-65
2022/01/18 11:53:37;;;;;;;29.67;10.40;;;5.30;99.90;;;;;;5069590;28;20059;-65
2022/01/18 11:56:05;;;;;;;23.85;10.35;;;5.40;99.90;;;;;;5068824;28;20044;-66
2022/01/18 11:58:31;;;;;;;24.73;10.85;;;5.40;99.90;;;;;;5069533;28;20076;-65
2022/01/18 12:01:00;;;;;;;25.38;10.95;;;5.50;99.90;;;;;;5070053;28;20093;-65
2022/01/18 12:03:42;;;;;;;24.63;11.30;;;5.50;99.90;;;;;;5069827;28;20514;-65
2022/01/18 12:06:09;;;;;;;26.80;11.95;;;5.50;99.90;;;;;;5069206;28;20059;-66
2022/01/18 12:08:43;;;;;;;25.25;11.43;;;5.60;99.90;;;;;;5071373;28;20048;-65
2022/01/18 12:11:10;;;;;;;;;;;5.70;99.90;;;;;;5070947;28;20045;-65
2022/01/18 12:13:39;;;;;;;29.45;10.90;;;5.80;99.90;;;;;;5069151;28;19921;-66
2022/01/18 12:16:17;;;;;;;23.38;10.57;;;5.80;99.90;;;;;;5070127;28;20066;-65
2022/01/18 12:19:02;;;;;;;29.52;11.70;;;5.80;99.90;;;;;;5069392;28;20044;-65
2022/01/18 12:21:29;;;;;;;;;;;5.90;99.90;;;;;;5070811;28;20392;-65
2022/01/18 12:23:57;;;;;;;25.35;10.75;;;5.80;99.90;;;;;;5069707;28;19974;-65
2022/01/18 12:26:41;;;;;;;24.20;10.10;;;5.80;99.90;;;;;;5070239;28;20048;-66
2022/01/18 12:34:26;;;;;;;21.15;11.35;;;5.90;99.90;;;;;;5070252;28;20162;-66
2022/01/18 12:36:53;;;;;;;25.35;10.35;;;6.00;99.90;;;;;;5070251;28;20388;-65
2022/01/18 12:39:20;;;;;;;23.02;10.25;;;5.90;99.90;;;;;;5070350;28;20579;-65
2022/01/18 12:41:52;;;;;;;27.20;10.80;;;5.90;99.90;;;;;;5069226;28;20072;-66
2022/01/18 12:44:21;;;;;;;25.27;10.82;;;5.90;99.90;;;;;;5059781;28;20088;-65
2022/01/18 12:46:55;;;;;;;20.65;10.13;;;6.00;99.90;;;;;;5069920;28;20442;-65
2022/01/18 12:49:22;;;;;;;27.40;11.15;;;6.00;99.90;;;;;;5052704;28;20466;-66
2022/01/18 12:52:09;;;;;;;22.10;10.23;;;6.00;99.90;;;;;;5070245;28;20369;-66
2022/01/18 12:54:36;;;;;;;24.27;10.80;;;6.10;99.90;;;;;;5067997;28;20056;-65
2022/01/18 12:57:20;;;;;;;22.33;10.18;;;6.10;99.90;;;;;;5069907;28;20055;-65
2022/01/18 12:59:59;;;;;;;23.23;9.82;;;6.20;99.90;;;;;;5059507;28;20072;-66
2022/01/18 13:02:27;;;;;;;25.10;10.65;;;6.20;99.90;;;;;;5069867;28;20044;-66
2022/01/18 13:05:00;;;;;;;27.17;10.32;;;6.20;99.90;;;;;;5069695;28;20036;-65
2022/01/18 13:07:27;;;;;;;29.00;10.52;;;6.30;99.90;;;;;;5070150;28;20044;-65
2022/01/18 13:09:55;;;;;;;20.25;9.05;;;6.30;99.90;;;;;;5069226;28;20045;-65
2022/01/18 13:12:35;;;;;;;23.92;9.70;;;6.30;99.90;;;;;;5073255;28;20506;-65
2022/01/18 13:15:04;;;;;;;31.02;9.43;;;6.40;99.90;;;;;;5075511;28;20056;-65
2022/01/18 13:23:22;;;;;;;;;;;6.50;99.90;;;;;;5074167;28;20044;-65
2022/01/18 13:25:56;;;;;;;24.05;7.47;;;6.50;99.90;;;;;;5073498;28;20001;-65
2022/01/18 13:28:34;;;;;;;25.23;8.27;;;6.50;99.90;;;;;;5073146;28;20083;-66
2022/01/18 13:31:20;;;;;;;19.95;6.65;;;6.60;99.90;;;;;;5073209;28;20446;-66
2022/01/18 13:33:58;;;;;;;30.02;9.65;;;6.70;99.90;;;;;;5073410;28;20048;-65
2022/01/18 13:36:27;;;;;;;34.28;7.03;;;6.80;99.90;;;;;;5072130;28;20049;-66
2022/01/18 13:38:54;;;;;;;27.00;6.43;;;6.90;99.90;;;;;;5073059;28;20245;-64
2022/01/18 13:41:21;;;;;;;24.27;7.68;;;7.00;99.90;;;;;;5072095;28;20087;-65
2022/01/18 13:43:48;;;;;;;14.48;5.85;;;7.10;99.90;;;;;;5071937;28;20075;-65
2022/01/18 13:46:24;;;;;;;20.75;5.68;;;7.20;99.90;;;;;;5071772;28;20049;-66
2022/01/18 13:49:05;;;;;;;26.25;8.18;;;7.30;99.90;;;;;;5071486;28;20128;-66
2022/01/18 13:51:32;;;;;;;31.52;6.78;;;7.30;99.90;;;;;;5061975;28;20123;-65
2022/01/18 13:53:59;;;;;;;27.63;7.35;;;7.30;99.90;;;;;;5084659;28;20360;-65
2022/01/18 13:56:26;;;;;;;21.77;7.57;;;7.40;99.90;;;;;;5073713;28;20048;-65
2022/01/18 13:59:04;;;;;;;25.63;7.65;;;7.30;99.90;;;;;;5072953;28;20048;-65
2022/01/18 14:01:35;;;;;;;26.73;8.45;;;7.20;99.90;;;;;;5069054;28;20522;-66
2022/01/18 14:04:16;;;;;;;21.95;7.93;;;7.20;99.90;;;;;;5072384;28;20484;-65
2022/01/18 14:06:43;;;;;;;28.65;9.75;;;7.10;99.90;;;;;;5070942;28;20078;-66
2022/01/18 14:09:11;;;;;;;24.70;11.25;;;7.00;99.90;;;;;;5072347;28;20052;-66
2022/01/18 14:11:38;;;;;;;21.42;8.93;;;7.00;99.90;;;;;;5072728;28;20045;-66
2022/01/18 14:14:16;;;;;;;22.23;7.85;;;6.90;99.90;;;;;;5072692;28;20114;-66
2022/01/18 14:16:50;;;;;;;26.77;9.27;;;6.90;99.90;;;;;;5072053;28;20064;-65
2022/01/18 14:19:34;;;;;;;28.10;8.35;;;6.90;99.90;;;;;;5072595;28;20138;-66
2022/01/18 14:22:23;;;;;;;23.40;8.53;;;6.90;99.90;;;;;;5071922;28;20040;-66
2022/01/18 14:25:01;;;;;;;22.40;8.73;;;6.90;99.90;;;;;;5070418;28;20075;-66
2022/01/18 14:27:34;;;;;;;28.80;10.23;;;6.90;99.90;;;;;;5071920;28;20098;-66
2022/01/18 14:30:11;;;;;;;25.10;9.60;;;7.00;99.90;;;;;;5072081;28;20413;-66